Time;durP1;ratioP1;P1;durP2;ratioP2;P2;SDS_P1;SDS_P2;PMS_P1;PMS_P2;Temp;Humidity;BMP_temperature;BMP_pressure;BME280_temperature;BME280_humidity;BME280_pressure;Samples;Min_cycle;Max_cycle;Signal;HPM_P1;HPM_P2
2020/12/02 00:02:02;;;;;;;14.33;8.00;;;;;;;-9.77;79.68;93655.09;1731467;80;21214;-80
2020/12/02 00:04:30;;;;;;;13.73;7.87;;;;;;;-9.83;80.01;93645.61;1735852;82;21037;-80
2020/12/02 00:06:59;;;;;;;13.43;6.77;;;;;;;-9.83;80.08;93646.93;1751369;81;21618;-77
2020/12/02 00:09:27;;;;;;;11.57;6.60;;;;;;;-9.84;79.90;93646.14;1784120;80;21139;-79
2020/12/02 00:11:55;;;;;;;14.30;6.93;;;;;;;-9.88;79.85;93645.63;1772792;80;21180;-77
2020/12/02 00:14:28;;;;;;;13.80;7.93;;;;;;;-9.93;80.25;93649.02;1792307;79;21048;-77
2020/12/02 00:16:56;;;;;;;14.90;7.83;;;;;;;-9.94;80.48;93654.02;1780402;80;21231;-79
2020/12/02 00:19:25;;;;;;;11.13;6.17;;;;;;;-9.90;80.78;93661.66;1763366;81;22157;-78
2020/12/02 00:22:09;;;;;;;13.07;6.73;;;;;;;-9.88;80.88;93654.30;1707350;82;21204;-78
2020/12/02 00:24:38;;;;;;;16.62;8.58;;;;;;;-9.84;80.76;93655.88;1717517;83;21190;-77
2020/12/02 00:27:19;;;;;;;10.97;6.33;;;;;;;-9.82;80.61;93655.86;1727392;82;21139;-80
2020/12/02 00:29:48;;;;;;;13.07;7.37;;;;;;;-9.78;80.61;93654.81;1704001;83;21174;-77
2020/12/02 00:32:34;;;;;;;14.70;7.43;;;;;;;-9.75;80.66;93656.14;1718252;83;21255;-77
2020/12/02 00:35:03;;;;;;;14.38;7.65;;;;;;;-9.72;80.79;93662.98;1797603;79;21203;-76
2020/12/02 00:37:31;;;;;;;11.03;5.83;;;;;;;-9.60;80.81;93652.19;1742569;82;21201;-79
2020/12/02 00:40:00;;;;;;;12.30;6.87;;;;;;;-9.47;79.87;93657.46;1773896;80;21624;-75
2020/12/02 00:42:28;;;;;;;13.13;7.30;;;;;;;-9.50;79.58;93660.09;1749008;81;21665;-77
2020/12/02 00:44:56;;;;;;;15.77;8.03;;;;;;;-9.50;79.45;93661.41;1754193;79;21207;-77
2020/12/02 00:47:25;;;;;;;15.97;6.83;;;;;;;-9.53;79.48;93651.40;1739575;79;21129;-79
2020/12/02 00:49:55;;;;;;;16.23;8.10;;;;;;;-9.54;79.39;93655.88;1739152;81;21198;-79
2020/12/02 00:52:25;;;;;;;12.17;6.93;;;;;;;-9.55;79.42;93657.47;1715191;82;21174;-76
2020/12/02 00:54:54;;;;;;;13.10;7.00;;;;;;;-9.58;79.64;93658.77;1771005;80;21191;-79
2020/12/02 00:57:27;;;;;;;13.17;7.20;;;;;;;-9.57;79.63;93659.03;1761601;80;22563;-79
2020/12/02 01:00:09;;;;;;;11.33;7.03;;;;;;;-9.51;79.70;93655.06;1748804;80;21695;-77
2020/12/02 01:02:59;;;;;;;12.37;7.07;;;;;;;-9.48;79.12;93660.59;1670808;85;21231;-77
2020/12/02 01:05:26;;;;;;;18.37;9.53;;;;;;;-9.57;79.06;93656.40;1767054;80;21154;-76
2020/12/02 01:07:55;;;;;;;10.13;5.40;;;;;;;-9.61;79.70;93652.72;1817652;77;21167;-76
2020/12/02 01:10:23;;;;;;;13.90;6.33;;;;;;;-9.54;79.27;93653.77;1748351;80;21189;-77
2020/12/02 01:12:52;;;;;;;14.03;6.60;;;;;;;-9.51;78.74;93654.56;1756111;77;21171;-77
2020/12/02 01:15:21;;;;;;;11.53;6.77;;;;;;;-9.48;78.27;93650.06;1846770;77;21123;-76
2020/12/02 01:18:05;;;;;;;13.57;7.40;;;;;;;-9.55;78.16;93649.04;1821383;78;21148;-76
2020/12/02 01:20:34;;;;;;;;;;;;;;;-9.60;78.30;93641.66;1839615;77;21069;-75
2020/12/02 01:23:02;;;;;;;11.17;6.43;;;;;;;-9.60;78.59;93646.92;1846837;77;22087;-75
2020/12/02 01:25:30;;;;;;;10.03;6.77;;;;;;;-9.57;78.11;93647.19;1856345;76;21068;-76
2020/12/02 01:28:06;;;;;;;8.63;5.33;;;;;;;-9.52;77.70;93649.02;1832332;77;21177;-77
2020/12/02 01:30:37;;;;;;;12.70;6.73;;;;;;;-9.51;77.30;93640.59;1809229;79;21517;-77
2020/12/02 01:33:05;;;;;;;12.53;6.77;;;;;;;-9.60;77.25;93645.61;1779731;79;21161;-76
2020/12/02 01:35:33;;;;;;;16.70;7.73;;;;;;;-9.61;77.06;93650.09;1774443;79;22218;-75
2020/12/02 01:38:05;;;;;;;14.10;6.97;;;;;;;-9.62;76.75;93645.09;1783340;79;21168;-75
2020/12/02 01:40:34;;;;;;;11.73;6.57;;;;;;;-9.71;76.66;93640.08;1808751;78;21101;-75
2020/12/02 01:43:05;;;;;;;12.47;6.30;;;;;;;-9.88;76.45;93638.52;1818290;78;21213;-75
2020/12/02 01:45:48;;;;;;;11.93;7.47;;;;;;;-10.06;76.80;93632.45;1796479;79;22674;-77
2020/12/02 01:48:52;;;;;;;14.07;6.53;;;;;;;-10.14;77.29;93639.02;1752371;78;21183;-75
2020/12/02 01:51:31;;;;;;;7.47;4.50;;;;;;;-10.11;77.28;93640.34;1814996;76;21510;-76
2020/12/02 01:54:11;;;;;;;12.73;6.23;;;;;;;-10.17;76.82;93647.42;1838108;78;21083;-75
2020/12/02 01:56:48;;;;;;;11.07;6.13;;;;;;;-10.35;76.84;93642.69;1827421;77;21195;-75
2020/12/02 01:59:38;;;;;;;9.70;5.77;;;;;;;-10.51;77.32;93639.23;1834113;76;21051;-76
2020/12/02 02:02:34;;;;;;;14.77;7.37;;;;;;;-10.61;77.69;93645.77;1798685;78;22196;-76
2020/12/02 02:05:30;;;;;;;15.03;7.50;;;;;;;-10.73;78.12;93635.48;1766243;79;21225;-77
2020/12/02 02:07:58;;;;;;;12.95;6.58;;;;;;;-10.74;78.51;93637.07;1781280;80;21604;-76
2020/12/02 02:10:31;;;;;;;14.67;7.47;;;;;;;-10.73;78.63;93643.90;1802805;77;21053;-76
2020/12/02 02:13:34;;;;;;;14.23;7.17;;;;;;;-10.70;78.47;93640.77;1809608;79;21188;-75
2020/12/02 02:16:10;;;;;;;15.57;8.40;;;;;;;-10.71;78.60;93632.62;1810155;78;21641;-76
2020/12/02 02:18:38;;;;;;;13.17;7.23;;;;;;;-10.65;78.70;93623.69;1838337;77;21186;-75
2020/12/02 02:21:14;;;;;;;13.57;8.20;;;;;;;-10.57;78.79;93631.88;1820761;78;21056;-76
2020/12/02 02:23:45;;;;;;;14.83;7.60;;;;;;;-10.54;78.40;93627.39;1823587;78;21499;-76
2020/12/02 02:26:40;;;;;;;14.13;8.60;;;;;;;-10.59;78.45;93629.23;1816813;78;21180;-75
2020/12/02 02:29:19;;;;;;;14.07;6.93;;;;;;;-10.63;78.76;93625.02;1820125;78;21196;-74
2020/12/02 02:31:56;;;;;;;13.97;6.70;;;;;;;-10.63;78.68;93621.08;1822409;76;21187;-77
2020/12/02 02:34:24;;;;;;;13.07;7.13;;;;;;;-10.68;78.48;93621.07;1798546;78;21563;-76
2020/12/02 02:36:53;;;;;;;15.57;8.30;;;;;;;-10.74;78.33;93626.56;1823452;78;21175;-76
2020/12/02 02:39:21;;;;;;;15.67;7.63;;;;;;;-10.76;78.42;93627.59;1856508;76;21105;-75
2020/12/02 02:41:59;;;;;;;14.77;7.53;;;;;;;-10.71;78.16;93629.99;1813955;77;21567;-76
2020/12/02 02:44:28;;;;;;;16.00;7.80;;;;;;;-10.78;77.94;93636.80;1865175;75;21094;-76
2020/12/02 02:46:56;;;;;;;17.10;8.43;;;;;;;-10.89;78.20;93631.23;1842143;76;21131;-76
2020/12/02 02:49:24;;;;;;;14.40;8.37;;;;;;;-10.94;78.49;93641.20;1798411;78;21140;-76
2020/12/02 02:51:53;;;;;;;15.57;7.53;;;;;;;-10.96;78.76;93638.55;1805673;77;21154;-76
2020/12/02 02:54:21;;;;;;;14.50;8.23;;;;;;;-11.00;78.53;93630.40;1842164;77;21140;-77
2020/12/02 02:56:49;;;;;;;14.83;6.77;;;;;;;-11.05;78.60;93639.05;1783911;77;21181;-75
2020/12/02 02:59:17;;;;;;;15.10;7.23;;;;;;;-11.06;78.56;93631.41;1782450;80;21158;-75
2020/12/02 03:01:46;;;;;;;15.67;6.87;;;;;;;-11.05;78.43;93631.70;1811040;77;21186;-76
2020/12/02 03:04:16;;;;;;;14.50;7.93;;;;;;;-11.05;78.39;93633.02;1845407;77;21103;-76
2020/12/02 03:06:44;;;;;;;12.83;7.07;;;;;;;-11.06;78.18;93635.35;1857521;77;22084;-76
2020/12/02 03:09:13;;;;;;;19.97;9.30;;;;;;;-11.13;78.23;93636.92;1857761;77;21155;-76
2020/12/02 03:11:42;;;;;;;16.17;6.90;;;;;;;-11.21;78.40;93636.59;1792713;77;21102;-76
2020/12/02 03:14:10;;;;;;;12.70;6.93;;;;;;;-11.26;78.63;93630.27;1790014;79;21131;-76
2020/12/02 03:16:46;;;;;;;11.30;5.97;;;;;;;-11.28;78.60;93634.22;1761684;81;21173;-76
2020/12/02 03:19:28;;;;;;;14.80;8.43;;;;;;;-11.29;78.37;93635.23;1779116;77;21194;-76
2020/12/02 03:22:01;;;;;;;17.27;8.67;;;;;;;-11.37;78.48;93634.41;1847295;76;21216;-76
2020/12/02 03:24:30;;;;;;;14.80;7.53;;;;;;;-11.40;78.83;93635.70;1803973;79;21124;-76
2020/12/02 03:26:58;;;;;;;16.60;8.67;;;;;;;-11.31;78.80;93638.13;1805775;79;21053;-76
2020/12/02 03:29:27;;;;;;;23.00;9.60;;;;;;;-11.22;78.48;93635.80;1786193;79;21058;-76
2020/12/02 03:31:55;;;;;;;13.93;7.40;;;;;;;-11.12;78.39;93641.12;1780629;80;22705;-76
2020/12/02 03:34:24;;;;;;;15.93;8.47;;;;;;;-11.12;78.17;93637.17;1792281;78;21177;-76
2020/12/02 03:36:53;;;;;;;19.10;9.27;;;;;;;-11.16;78.21;93639.27;1815648;79;21149;-76
2020/12/02 03:39:21;;;;;;;19.50;8.87;;;;;;;-11.22;78.23;93642.89;1854581;77;21183;-76
2020/12/02 03:41:49;;;;;;;16.90;8.40;;;;;;;-11.29;78.45;93645.74;1812048;77;21455;-76
2020/12/02 03:44:17;;;;;;;10.73;6.17;;;;;;;-11.30;78.64;93645.48;1833122;77;21614;-76
2020/12/02 03:46:46;;;;;;;15.97;8.30;;;;;;;-11.28;78.51;93644.72;1838812;77;21593;-76
2020/12/02 03:49:14;;;;;;;14.07;8.00;;;;;;;-11.29;78.55;93653.61;1798521;79;21042;-76
2020/12/02 03:51:42;;;;;;;15.27;8.70;;;;;;;-11.30;78.35;93648.11;1767089;81;21194;-76
2020/12/02 03:54:10;;;;;;;13.43;7.17;;;;;;;-11.37;78.40;93645.70;1827555;78;21118;-76
2020/12/02 03:56:39;;;;;;;14.50;7.30;;;;;;;-11.36;78.55;93649.90;1795734;78;21182;-76
2020/12/02 03:59:07;;;;;;;15.30;7.47;;;;;;;-11.33;78.60;93644.14;1792727;79;21176;-76
2020/12/02 04:01:35;;;;;;;15.00;7.27;;;;;;;-11.26;78.27;93649.17;1801593;79;21074;-76
2020/12/02 04:04:04;;;;;;;16.40;8.00;;;;;;;-11.22;77.99;93654.19;1812943;79;21139;-76
2020/12/02 04:06:32;;;;;;;16.00;7.37;;;;;;;-11.28;77.95;93649.44;1822637;78;21170;-76
2020/12/02 04:09:00;;;;;;;15.00;8.13;;;;;;;-11.33;78.00;93653.33;1813917;78;21800;-75
2020/12/02 04:11:29;;;;;;;20.30;9.70;;;;;;;-11.35;78.14;93646.77;1811777;77;21164;-77
2020/12/02 04:13:57;;;;;;;15.80;7.97;;;;;;;-11.39;78.31;93641.77;1820677;78;21115;-77
2020/12/02 04:16:25;;;;;;;15.93;8.43;;;;;;;-11.35;77.96;93651.50;1842436;77;21150;-76
2020/12/02 04:18:53;;;;;;;15.20;7.10;;;;;;;-11.31;77.75;93647.32;1842690;77;21152;-77
2020/12/02 04:21:24;;;;;;;13.10;6.97;;;;;;;-11.29;77.40;93649.68;1834368;77;21666;-76
2020/12/02 04:23:56;;;;;;;13.07;7.37;;;;;;;-11.29;77.12;93648.37;1807607;78;21577;-76
2020/12/02 04:26:24;;;;;;;13.20;7.50;;;;;;;-11.38;76.67;93647.28;1820103;77;21462;-76
2020/12/02 04:28:53;;;;;;;13.37;7.90;;;;;;;-11.53;76.80;93644.03;1848734;76;21084;-76
2020/12/02 04:31:21;;;;;;;16.97;8.33;;;;;;;-11.61;77.21;93649.76;1863913;76;21120;-77
2020/12/02 04:33:49;;;;;;;16.90;7.93;;;;;;;-11.69;77.54;93647.08;1858631;77;21573;-77
2020/12/02 04:36:18;;;;;;;16.00;7.97;;;;;;;-11.67;77.91;93648.92;1807716;77;21079;-76
2020/12/02 04:38:46;;;;;;;12.73;7.27;;;;;;;-11.57;77.89;93654.77;1800877;79;21170;-77
2020/12/02 04:41:15;;;;;;;17.10;8.20;;;;;;;-11.53;77.60;93650.07;1821411;76;21477;-77
2020/12/02 04:43:46;;;;;;;14.70;7.57;;;;;;;-11.46;77.38;93656.94;1839102;77;21063;-77
2020/12/02 04:46:18;;;;;;;13.17;6.97;;;;;;;-11.50;77.17;93652.20;1793178;79;21367;-77
2020/12/02 04:48:52;;;;;;;11.83;6.10;;;;;;;-11.57;77.13;93654.77;1797197;79;21634;-77
2020/12/02 04:51:23;;;;;;;11.37;5.53;;;;;;;-11.70;77.24;93655.19;1770043;79;21106;-77
2020/12/02 04:53:53;;;;;;;12.67;6.77;;;;;;;-11.80;77.58;93665.10;1788981;78;21129;-76
2020/12/02 04:56:21;;;;;;;11.87;6.33;;;;;;;-11.82;77.84;93664.55;1799955;79;21130;-75
2020/12/02 04:58:52;;;;;;;10.50;4.87;;;;;;;-11.79;77.95;93664.05;1794740;78;21376;-75
2020/12/02 05:01:23;;;;;;;11.87;6.20;;;;;;;-11.72;77.49;93665.95;1778414;80;21165;-75
2020/12/02 05:04:08;;;;;;;10.33;5.70;;;;;;;-11.83;77.00;93661.69;1770575;81;21157;-76
2020/12/02 05:06:41;;;;;;;;;;;;;;;-11.94;77.09;93661.34;1794389;79;21150;-76
2020/12/02 05:09:23;;;;;;;13.40;6.13;;;;;;;-12.03;77.62;93658.39;1762381;80;20351;-76
2020/12/02 05:12:04;;;;;;;14.20;6.80;;;;;;;-12.05;77.95;93655.22;1780736;79;22064;-76
2020/12/02 05:14:39;;;;;;;15.83;6.80;;;;;;;-12.06;78.17;93658.36;1797133;78;21271;-76
2020/12/02 05:17:26;;;;;;;13.83;7.30;;;;;;;-11.99;78.44;93662.09;1816732;78;21175;-76
2020/12/02 05:20:14;;;;;;;16.27;7.07;;;;;;;-11.87;78.34;93660.09;1813625;79;21254;-76
2020/12/02 05:22:45;;;;;;;13.43;7.33;;;;;;;-11.81;78.05;93658.25;1812878;77;21139;-77
2020/12/02 05:25:28;;;;;;;12.97;7.43;;;;;;;-11.74;78.04;93658.83;1802625;79;21068;-76
2020/12/02 05:28:22;;;;;;;15.13;6.80;;;;;;;-11.64;77.58;93660.23;1784437;79;21155;-76
2020/12/02 05:31:08;;;;;;;17.12;7.65;;;;;;;-11.58;77.17;93656.61;1842959;77;21154;-76
2020/12/02 05:33:36;;;;;;;15.40;7.93;;;;;;;-11.63;77.00;93656.55;1794206;77;21155;-77
2020/12/02 05:36:27;;;;;;;17.63;8.37;;;;;;;-11.70;77.12;93655.19;1827362;76;21050;-77
2020/12/02 05:39:08;;;;;;;18.40;8.60;;;;;;;-11.73;77.46;93663.06;1812692;77;21353;-77
2020/12/02 05:41:36;;;;;;;16.90;7.57;;;;;;;-11.64;77.70;93666.78;1788066;79;21181;-76
2020/12/02 05:44:10;;;;;;;16.20;8.03;;;;;;;-11.51;77.43;93670.80;1778057;80;21275;-76
2020/12/02 05:46:41;;;;;;;17.00;9.77;;;;;;;-11.44;76.88;93675.84;1776633;80;21448;-76
2020/12/02 05:49:35;;;;;;;13.30;7.73;;;;;;;-11.45;76.89;93671.64;1796253;79;21807;-76
2020/12/02 05:52:04;;;;;;;17.42;7.10;;;;;;;-11.40;76.71;93672.45;1765807;79;22230;-76
2020/12/02 05:54:32;;;;;;;14.63;6.53;;;;;;;-11.33;76.40;93669.61;1769745;77;21188;-76
2020/12/02 05:57:04;;;;;;;13.93;6.67;;;;;;;-11.34;76.20;93668.03;1836880;77;21454;-77
2020/12/02 05:59:32;;;;;;;17.33;7.37;;;;;;;-11.47;76.27;93665.84;1787399;78;21180;-77
2020/12/02 06:02:01;;;;;;;15.63;7.37;;;;;;;-11.58;76.52;93667.10;1815656;77;21165;-77
2020/12/02 06:04:31;;;;;;;17.10;7.63;;;;;;;-11.63;76.97;93668.88;1783051;80;21355;-78
2020/12/02 06:06:59;;;;;;;17.33;9.03;;;;;;;-11.66;77.23;93666.76;1790724;78;21188;-78
2020/12/02 06:09:42;;;;;;;19.40;8.67;;;;;;;-11.68;77.38;93670.17;1813537;78;21137;-77
2020/12/02 06:12:17;;;;;;;17.83;9.60;;;;;;;-11.66;77.60;93672.80;1797530;79;21197;-77
2020/12/02 06:14:45;;;;;;;18.62;9.03;;;;;;;-11.59;77.83;93669.44;1797356;78;21088;-76
2020/12/02 06:17:26;;;;;;;18.27;12.60;;;;;;;-11.47;77.92;93677.13;1815502;77;21287;-76
2020/12/02 06:19:54;;;;;;;12.00;6.70;;;;;;;-11.44;76.47;93674.00;1843964;77;21183;-77
2020/12/02 06:22:51;;;;;;;10.63;6.43;;;;;;;-11.46;75.91;93675.31;1794433;78;21213;-77
2020/12/02 06:25:47;;;;;;;11.55;5.47;;;;;;;-11.57;76.03;93669.98;1811632;78;28539;-76
2020/12/02 06:28:33;;;;;;;7.13;4.37;;;;;;;-11.67;75.85;93669.13;1777891;79;21268;-77
2020/12/02 06:31:24;;;;;;;6.80;4.20;;;;;;;-11.86;75.95;93674.78;1816742;78;22199;-76
2020/12/02 06:33:53;;;;;;;10.00;4.47;;;;;;;-11.93;76.25;93669.47;1846447;76;21150;-78
2020/12/02 06:36:47;;;;;;;12.07;6.20;;;;;;;-11.94;76.19;93673.92;1792477;79;21190;-77
2020/12/02 06:39:26;;;;;;;13.03;7.10;;;;;;;-12.02;76.02;93677.80;1756311;78;21182;-78
2020/12/02 06:41:56;;;;;;;8.10;4.40;;;;;;;-12.08;76.32;93684.03;1804309;78;21604;-77
2020/12/02 06:44:59;;;;;;;8.93;5.77;;;;;;;-12.07;76.77;93684.81;1817295;78;21220;-77
2020/12/02 06:47:28;;;;;;;9.47;4.43;;;;;;;-12.00;76.96;93682.29;1814672;77;21201;-78
2020/12/02 06:50:02;;;;;;;9.00;3.63;;;;;;;-11.84;77.11;93687.66;1794406;79;21091;-78
2020/12/02 06:52:36;;;;;;;9.48;4.22;;;;;;;-11.52;77.38;93684.97;1787621;80;21123;-77
2020/12/02 06:55:23;;;;;;;7.55;5.05;;;;;;;-11.03;77.02;93676.34;1786862;80;21150;-77
2020/12/02 06:58:01;;;;;;;12.77;5.10;;;;;;;-10.52;77.27;93679.72;1791120;79;22052;-77
2020/12/02 07:00:49;;;;;;;7.53;5.27;;;;;;;-9.91;77.12;93672.45;1799567;79;21281;-77
2020/12/02 07:03:34;;;;;;;6.73;3.53;;;;;;;-9.37;75.43;93674.55;1796969;79;21224;-77
2020/12/02 07:09:10;;;;;;;17.27;10.60;;;;;;;-8.32;72.89;93679.75;1789785;79;21171;-80
2020/12/02 07:11:43;;;;;;;9.30;5.20;;;;;;;-7.72;70.75;93673.61;1794452;79;21192;-76
2020/12/02 07:14:16;;;;;;;;;;;;;;;-7.25;68.85;93673.52;1808114;79;21159;-78
2020/12/02 07:16:44;;;;;;;9.90;5.50;;;;;;;-6.89;67.04;93677.38;1807482;78;20221;-77
2020/12/02 07:19:15;;;;;;;18.80;8.60;;;;;;;-6.51;66.13;93675.39;1810766;78;21140;-82
2020/12/02 07:21:53;;;;;;;40.50;19.97;;;;;;;-6.08;65.78;93682.03;1820263;78;21204;-78
2020/12/02 07:24:28;;;;;;;42.03;21.57;;;;;;;-5.75;64.86;93670.42;1769271;80;21364;-77
2020/12/02 07:26:57;;;;;;;46.47;27.50;;;;;;;-5.48;63.65;93672.95;1787563;80;21514;-81
2020/12/02 07:29:28;;;;;;;25.47;13.20;;;;;;;-5.14;61.47;93672.13;1822543;78;21141;-77
2020/12/02 07:32:20;;;;;;;22.20;10.93;;;;;;;-4.78;60.06;93672.82;1824232;77;21359;-81
2020/12/02 07:34:49;;;;;;;14.87;8.03;;;;;;;-4.53;59.69;93670.80;1811303;78;21644;-77
2020/12/02 07:37:19;;;;;;;9.33;5.07;;;;;;;-4.44;59.30;93663.70;1842383;74;22844;-77
2020/12/02 07:39:55;;;;;;;12.63;6.30;;;;;;;-4.44;59.51;93661.86;1874222;76;21206;-78
2020/12/02 07:42:40;;;;;;;30.90;17.77;;;;;;;-4.26;58.69;93662.81;1782183;80;21647;-80
2020/12/02 07:45:19;;;;;;;74.70;16.57;;;;;;;-4.07;58.23;93645.98;1766114;80;21146;-77
2020/12/02 07:48:04;;;;;;;9.20;5.50;;;;;;;-3.77;56.74;93643.99;1767036;80;21143;-76
2020/12/02 07:50:44;;;;;;;11.28;6.35;;;;;;;-3.30;55.11;93635.77;1772739;80;21221;-74
2020/12/02 07:53:27;;;;;;;15.80;8.67;;;;;;;-2.67;54.60;93648.55;1804501;79;21472;-77
2020/12/02 07:55:57;;;;;;;16.80;8.33;;;;;;;-2.08;51.49;93642.41;1784622;79;21144;-77
2020/12/02 07:58:40;;;;;;;15.53;8.87;;;;;;;-1.87;52.42;93643.95;1781810;80;21341;-78
2020/12/02 08:01:37;;;;;;;17.42;10.10;;;;;;;-1.58;52.22;93641.48;1833079;77;21575;-76
2020/12/02 08:04:22;;;;;;;31.80;18.07;;;;;;;-1.43;51.48;93642.88;1811978;77;22419;-77
2020/12/02 08:07:11;;;;;;;21.48;13.22;;;;;;;-1.25;51.30;93632.98;1852029;77;21382;-78
2020/12/02 08:09:47;;;;;;;37.23;20.80;;;;;;;-1.26;50.41;93639.42;1802304;77;21199;-78
2020/12/02 08:12:31;;;;;;;38.17;22.07;;;;;;;-1.38;50.58;93634.73;1773917;80;21165;-75
2020/12/02 08:15:06;;;;;;;56.28;30.72;;;;;;;-1.51;51.00;93640.44;1814463;77;21132;-75
2020/12/02 08:17:34;;;;;;;47.75;25.20;;;;;;;-1.47;50.61;93637.41;1828630;77;21191;-81
2020/12/02 08:20:31;;;;;;;54.03;29.30;;;;;;;-1.27;50.94;93627.97;1797691;78;21180;-77
2020/12/02 08:23:02;;;;;;;37.38;21.48;;;;;;;-1.10;50.29;93623.16;1822758;78;21216;-78
2020/12/02 08:25:36;;;;;;;41.60;22.35;;;;;;;-1.02;50.62;93621.56;1800405;77;21527;-78
2020/12/02 08:28:10;;;;;;;45.17;26.37;;;;;;;-0.91;49.29;93620.13;1785120;77;21462;-76
2020/12/02 08:30:38;;;;;;;59.65;31.87;;;;;;;-0.88;49.44;93622.17;1798311;77;21197;-77
2020/12/02 08:33:13;;;;;;;51.77;28.52;;;;;;;-0.80;50.23;93620.02;1823529;78;21188;-78
2020/12/02 08:35:46;;;;;;;54.00;27.73;;;;;;;-0.65;50.60;93617.95;1838473;77;21177;-80
2020/12/02 08:38:27;;;;;;;56.85;29.72;;;;;;;-0.45;50.54;93614.59;1856484;77;21138;-75
2020/12/02 08:40:58;;;;;;;47.80;26.23;;;;;;;-0.29;50.19;93612.16;1838632;77;21129;-79
2020/12/02 08:43:38;;;;;;;40.12;22.05;;;;;;;-0.07;50.45;93609.20;1823317;77;21255;-77
2020/12/02 08:46:19;;;;;;;33.85;19.40;;;;;;;0.12;49.52;93599.42;1825584;77;21210;-79
2020/12/02 08:48:51;;;;;;;32.55;19.12;;;;;;;0.19;48.98;93602.92;1824525;76;21560;-79
2020/12/02 08:51:21;;;;;;;20.88;12.73;;;;;;;0.25;48.75;93597.59;1857254;76;21099;-78
2020/12/02 08:53:49;;;;;;;12.65;8.38;;;;;;;0.31;49.03;93595.52;1824742;77;21082;-77
2020/12/02 08:56:35;;;;;;;14.35;9.43;;;;;;;0.36;48.56;93595.31;1825532;78;21203;-79
2020/12/02 08:59:06;;;;;;;11.30;7.50;;;;;;;0.48;49.17;93596.71;1825890;78;21203;-79
2020/12/02 09:01:34;;;;;;;12.55;8.75;;;;;;;0.87;47.19;93597.34;1817598;78;21150;-78
2020/12/02 09:04:02;;;;;;;13.62;8.80;;;;;;;1.00;46.44;93592.23;1826187;76;21196;-78
2020/12/02 09:06:31;;;;;;;11.93;8.03;;;;;;;0.79;46.47;93589.62;1857945;76;21167;-78
2020/12/02 09:08:59;;;;;;;24.65;14.85;;;;;;;0.37;47.28;93590.19;1830697;77;22114;-79
2020/12/02 09:11:31;;;;;;;22.00;12.88;;;;;;;-0.18;48.52;93581.84;1849109;76;21183;-76
2020/12/02 09:14:00;;;;;;;37.55;19.80;;;;;;;-0.70;50.32;93580.19;1842132;77;21158;-75
2020/12/02 09:16:34;;;;;;;30.85;17.27;;;;;;;-1.27;51.58;93573.83;1834833;77;21564;-77
2020/12/02 09:19:03;;;;;;;28.90;17.15;;;;;;;-1.65;52.67;93566.50;1849491;76;21144;-76
2020/12/02 09:21:32;;;;;;;27.42;14.93;;;;;;;-1.86;53.72;93569.55;1823194;77;21196;-78
2020/12/02 09:24:00;;;;;;;29.85;13.72;;;;;;;-2.02;54.92;93563.91;1824319;78;21631;-75
2020/12/02 09:26:31;;;;;;;26.23;14.40;;;;;;;-2.12;56.54;93558.87;1847686;77;21195;-75
2020/12/02 09:29:00;;;;;;;29.57;15.97;;;;;;;-2.17;57.50;93558.48;1850181;77;21659;-75
2020/12/02 09:31:28;;;;;;;21.77;11.97;;;;;;;-2.20;57.73;93553.77;1835648;76;21159;-76
2020/12/02 09:33:58;;;;;;;25.20;13.27;;;;;;;-2.29;58.17;93545.77;1865525;76;21796;-74
2020/12/02 09:36:27;;;;;;;21.60;11.97;;;;;;;-2.26;59.22;93544.34;1810290;78;21204;-77
2020/12/02 09:38:56;;;;;;;24.07;13.90;;;;;;;-2.15;59.22;93542.17;1850308;77;21154;-76
2020/12/02 09:41:44;;;;;;;20.57;11.77;;;;;;;-2.07;59.29;93532.87;1813141;77;21262;-76
2020/12/02 09:44:37;;;;;;;18.20;9.77;;;;;;;-1.98;59.49;93528.86;1778081;77;21520;-76
2020/12/02 09:47:15;;;;;;;17.90;9.80;;;;;;;-1.86;60.27;93530.90;1885519;75;21589;-75
2020/12/02 09:49:46;;;;;;;19.27;10.70;;;;;;;-1.83;60.38;93525.73;1856606;76;21142;-78
2020/12/02 09:52:42;;;;;;;28.23;15.93;;;;;;;-1.74;60.06;93525.16;1832192;76;21088;-74
2020/12/02 09:55:20;;;;;;;24.27;13.63;;;;;;;-1.58;60.11;93522.81;1836646;78;21592;-77
2020/12/02 09:57:49;;;;;;;20.10;11.20;;;;;;;-1.33;59.56;93517.73;1761765;80;21156;-77
2020/12/02 10:00:19;;;;;;;20.40;11.10;;;;;;;-1.14;59.51;93509.36;1784562;80;21493;-76
2020/12/02 10:03:21;;;;;;;18.53;9.77;;;;;;;-1.03;59.06;93503.34;1800316;78;21159;-74
2020/12/02 10:06:09;;;;;;;20.73;11.93;;;;;;;-0.92;59.06;93504.34;1783003;78;21178;-76
2020/12/02 10:08:54;;;;;;;10.97;6.83;;;;;;;-0.92;59.24;93494.98;1827731;78;21127;-77
2020/12/02 10:12:01;;;;;;;12.00;7.00;;;;;;;-0.97;58.51;93495.95;1813560;78;21642;-76
2020/12/02 10:14:34;;;;;;;12.85;6.50;;;;;;;-1.03;59.66;93494.56;1780497;78;22182;-77
2020/12/02 10:17:41;;;;;;;13.07;7.80;;;;;;;-1.07;59.19;93495.75;1818071;78;21498;-75
2020/12/02 10:20:21;;;;;;;10.30;6.03;;;;;;;-1.11;59.51;93490.05;1812356;78;21226;-76
2020/12/02 10:23:28;;;;;;;8.73;5.90;;;;;;;-1.20;60.04;93490.61;1818985;78;21176;-75
2020/12/02 10:26:20;;;;;;;11.13;6.03;;;;;;;-1.26;60.16;93485.45;1810584;78;21178;-79
2020/12/02 10:29:14;;;;;;;10.77;5.23;;;;;;;-1.38;60.61;93478.67;1824839;78;21196;-76
2020/12/02 10:32:16;;;;;;;12.23;6.53;;;;;;;-1.43;60.28;93473.49;1814954;78;21424;-78
2020/12/02 10:34:45;;;;;;;10.70;7.07;;;;;;;-1.53;62.24;93474.63;1792591;76;21253;-76
2020/12/02 10:37:24;;;;;;;6.30;4.33;;;;;;;-1.57;62.85;93471.03;1846919;77;21162;-76
2020/12/02 10:39:53;;;;;;;8.27;4.90;;;;;;;-1.63;61.06;93470.96;1793939;79;21404;-77
2020/12/02 10:42:53;;;;;;;5.13;4.00;;;;;;;-1.77;60.52;93459.69;1786401;80;21192;-74
2020/12/02 10:45:22;;;;;;;15.70;5.20;;;;;;;-1.87;60.71;93460.81;1825426;77;21255;-75
2020/12/02 10:48:18;;;;;;;7.13;4.43;;;;;;;-1.90;61.62;93462.00;1817570;76;21142;-78
2020/12/02 10:50:47;;;;;;;9.97;4.97;;;;;;;-1.86;61.29;93448.27;1833660;77;21104;-75
2020/12/02 10:53:24;;;;;;;10.90;6.30;;;;;;;-1.82;61.75;93455.31;1811150;78;21094;-75
2020/12/02 10:55:54;;;;;;;7.47;4.53;;;;;;;-1.71;63.06;93449.88;1809515;79;21308;-78
2020/12/02 11:01:01;;;;;;;11.93;7.20;;;;;;;-1.50;62.38;93451.33;1778082;80;21210;-75
2020/12/02 11:03:36;;;;;;;13.80;7.83;;;;;;;-1.45;61.97;93440.25;1790721;80;21160;-78
2020/12/02 11:06:46;;;;;;;17.63;10.57;;;;;;;-1.39;61.74;93430.95;1774983;80;21059;-75
2020/12/02 11:09:46;;;;;;;18.70;9.87;;;;;;;-1.28;62.56;93435.65;1827370;77;21346;-77
2020/12/02 11:12:36;;;;;;;21.20;11.37;;;;;;;-1.22;62.10;93434.91;1701729;83;21199;-76
2020/12/02 11:15:25;;;;;;;17.47;9.70;;;;;;;-1.15;61.98;93425.85;1723750;83;21194;-76
2020/12/02 11:18:23;;;;;;;22.90;11.63;;;;;;;-1.10;62.26;93419.55;1714585;82;21188;-76
2020/12/02 11:21:30;;;;;;;26.97;14.63;;;;;;;-1.04;61.52;93415.05;1685212;81;21284;-77
2020/12/02 11:24:22;;;;;;;13.10;6.87;;;;;;;-1.03;61.07;93415.27;1720980;83;21203;-79
2020/12/02 11:26:51;;;;;;;11.73;6.43;;;;;;;-1.07;59.92;93410.90;1805393;78;21218;-78
2020/12/02 11:29:19;;;;;;;21.10;11.80;;;;;;;-1.12;58.92;93413.20;1751349;80;21184;-77
2020/12/02 11:32:07;;;;;;;28.83;14.13;;;;;;;-1.14;59.36;93414.63;1747637;80;21162;-78
2020/12/02 11:35:16;;;;;;;17.47;9.53;;;;;;;-1.08;60.01;93406.67;1739699;81;21313;-76
2020/12/02 11:37:52;;;;;;;12.67;6.93;;;;;;;-1.03;59.20;93402.48;1732465;81;21528;-77
2020/12/02 11:40:27;;;;;;;18.43;12.30;;;;;;;-1.01;58.46;93394.39;1784880;79;21196;-77
2020/12/02 11:43:01;;;;;;;17.77;10.57;;;;;;;-0.99;58.79;93394.83;1702463;79;21199;-77
2020/12/02 11:45:34;;;;;;;20.97;13.03;;;;;;;-0.93;59.27;93394.66;1797688;79;21186;-78
2020/12/02 11:48:22;;;;;;;11.73;6.60;;;;;;;-0.88;59.78;93387.23;1805644;79;21156;-77
2020/12/02 11:51:14;;;;;;;13.43;8.13;;;;;;;-0.81;58.91;93387.51;1769882;78;21214;-77
2020/12/02 11:53:57;;;;;;;12.10;7.53;;;;;;;-0.81;58.38;93382.73;1775720;80;21192;-78
2020/12/02 11:56:37;;;;;;;11.93;7.87;;;;;;;-0.87;59.29;93384.78;1778360;78;21165;-76
2020/12/02 11:59:16;;;;;;;11.63;7.10;;;;;;;-0.93;59.07;93378.65;1791504;79;21047;-78
2020/12/02 12:01:57;;;;;;;10.90;6.60;;;;;;;-1.01;59.63;93374.37;1749267;81;21177;-76
2020/12/02 12:04:37;;;;;;;11.33;6.37;;;;;;;-1.06;59.87;93374.53;1780851;80;21206;-77
2020/12/02 12:07:39;;;;;;;11.48;6.47;;;;;;;-1.10;60.39;93374.17;1778349;78;21212;-77
2020/12/02 12:10:33;;;;;;;12.17;6.93;;;;;;;-1.11;60.90;93373.95;1710197;81;21192;-78